Benton, CA (93512)

8:12 PM PDT on September 30, 2016 (GMT -0700)
Mammoth Yosemite | | Change Station

Elev 7129 ft 37.62 °N, 118.84 °W | Updated 17 minutes ago

Clear
Clear
57 °F
Feels Like 57 °F
N
5
Wind Variable Wind from East

Today
High -- | Low -- °F
--% Chance of Precip.
Yesterday
High -- | Low -- °F
Precip. -- in
Pressure 30.22 in
Visibility 10.0 miles
Clouds Clear
Dew Point 28 °F
Humidity 33%
Rainfall 0.00 in
Snow Depth Not available.
6:49 AM 6:38 PM
New Moon, 0% visible
METAR KMMH 010255Z AUTO 09004KT 10SM CLR 14/M02 A3022 RMK AO2 T01401023
Pressure 30.22 in
Visibility 10.0 miles
Clouds Clear
Dew Point 28 °F
Humidity 33%
Rainfall 0.00 in
Snow Depth Not available.
6:49 AM 6:38 PM
New Moon, 0% visible
METAR KMMH 010255Z AUTO 09004KT 10SM CLR 14/M02 A3022 RMK AO2 T01401023

10-Day Weather Forecast

Almanac

Astronomy

Sep. 30, 2016 Rise Set
Actual Time
Civil Twilight
Nautical Twilight
Astronomical Twilight
Moon
Length of Visible Light
Length of Day
Tomorrow will be .
, % of the Moon is Illuminated

Today's Extremes

State Highs State Lows

Community

WunderPhotos

Upload Photos

1,942,882 photos uploaded!

WunderBlog® & News

Nearby

Air Quality

  Air Quality AQ Index Pollutant
Not available.

Snow Depth

Station Depth Elevation

Earthquake Activity

City Distance Mag. Time & Date
Minimum magnitude displayed is 2.5.

Coastal Water Temperatures

Place Temperature

Stations

Nearby Weather Stations

Station Location Temp. Windchill Dew Point Humidity Wind Precip. Elev Updated Type
                   

Watches & Warnings

There are currently no watches in effect.